sensor_id;sensor_type;location;lat;lon;timestamp;P1;durP1;ratioP1;P2;durP2;ratioP2
49978;SDS011;35869;50.990;6.962;2023-03-16T00:03:24;4.75;;;3.80;;
49978;SDS011;35869;50.990;6.962;2023-03-16T00:08:25;7.00;;;3.53;;
49978;SDS011;35869;50.990;6.962;2023-03-16T00:13:25;7.40;;;3.78;;
49978;SDS011;35869;50.990;6.962;2023-03-16T00:18:26;5.10;;;3.70;;
49978;SDS011;35869;50.990;6.962;2023-03-16T00:23:27;7.55;;;4.50;;
49978;SDS011;35869;50.990;6.962;2023-03-16T00:28:28;5.40;;;3.35;;
49978;SDS011;35869;50.990;6.962;2023-03-16T00:38:33;5.97;;;4.40;;
49978;SDS011;35869;50.990;6.962;2023-03-16T00:43:35;6.25;;;3.80;;
49978;SDS011;35869;50.990;6.962;2023-03-16T00:48:37;8.00;;;3.65;;
49978;SDS011;35869;50.990;6.962;2023-03-16T00:53:39;7.60;;;3.80;;
49978;SDS011;35869;50.990;6.962;2023-03-16T00:58:41;5.18;;;2.88;;
49978;SDS011;35869;50.990;6.962;2023-03-16T01:03:41;5.70;;;3.42;;
49978;SDS011;35869;50.990;6.962;2023-03-16T01:08:43;9.23;;;3.40;;
49978;SDS011;35869;50.990;6.962;2023-03-16T01:13:43;8.93;;;4.25;;
49978;SDS011;35869;50.990;6.962;2023-03-16T01:18:45;4.47;;;2.80;;
49978;SDS011;35869;50.990;6.962;2023-03-16T01:23:45;6.20;;;3.80;;
49978;SDS011;35869;50.990;6.962;2023-03-16T01:28:45;3.80;;;3.00;;
49978;SDS011;35869;50.990;6.962;2023-03-16T01:33:46;4.30;;;3.20;;
49978;SDS011;35869;50.990;6.962;2023-03-16T01:38:46;5.47;;;3.10;;
49978;SDS011;35869;50.990;6.962;2023-03-16T01:43:47;4.37;;;3.20;;
49978;SDS011;35869;50.990;6.962;2023-03-16T01:54:13;5.20;;;3.15;;
49978;SDS011;35869;50.990;6.962;2023-03-16T01:59:20;13.05;;;2.45;;
49978;SDS011;35869;50.990;6.962;2023-03-16T02:09:33;5.18;;;3.03;;
49978;SDS011;35869;50.990;6.962;2023-03-16T02:14:36;7.30;;;2.88;;
49978;SDS011;35869;50.990;6.962;2023-03-16T02:24:57;5.10;;;2.40;;
49978;SDS011;35869;50.990;6.962;2023-03-16T02:30:07;4.78;;;3.08;;
49978;SDS011;35869;50.990;6.962;2023-03-16T02:35:16;4.53;;;2.33;;
49978;SDS011;35869;50.990;6.962;2023-03-16T02:40:27;3.50;;;2.63;;
49978;SDS011;35869;50.990;6.962;2023-03-16T02:45:39;5.40;;;2.17;;
49978;SDS011;35869;50.990;6.962;2023-03-16T02:50:46;2.55;;;2.33;;
49978;SDS011;35869;50.990;6.962;2023-03-16T02:55:49;3.83;;;2.47;;
49978;SDS011;35869;50.990;6.962;2023-03-16T03:00:49;4.93;;;2.60;;
49978;SDS011;35869;50.990;6.962;2023-03-16T03:05:49;5.28;;;3.20;;
49978;SDS011;35869;50.990;6.962;2023-03-16T03:10:50;4.30;;;2.83;;
49978;SDS011;35869;50.990;6.962;2023-03-16T03:15:50;3.78;;;2.75;;
49978;SDS011;35869;50.990;6.962;2023-03-16T03:20:50;4.20;;;2.65;;
49978;SDS011;35869;50.990;6.962;2023-03-16T03:25:50;4.07;;;2.53;;
49978;SDS011;35869;50.990;6.962;2023-03-16T03:30:50;3.40;;;2.72;;
49978;SDS011;35869;50.990;6.962;2023-03-16T03:35:54;7.68;;;3.15;;
49978;SDS011;35869;50.990;6.962;2023-03-16T03:40:56;4.72;;;2.50;;
49978;SDS011;35869;50.990;6.962;2023-03-16T03:45:56;4.60;;;2.67;;
49978;SDS011;35869;50.990;6.962;2023-03-16T03:50:57;5.93;;;2.53;;
49978;SDS011;35869;50.990;6.962;2023-03-16T03:55:57;4.15;;;2.92;;
49978;SDS011;35869;50.990;6.962;2023-03-16T04:00:57;4.57;;;2.80;;
49978;SDS011;35869;50.990;6.962;2023-03-16T04:05:57;5.63;;;3.10;;
49978;SDS011;35869;50.990;6.962;2023-03-16T04:10:58;3.10;;;2.08;;
49978;SDS011;35869;50.990;6.962;2023-03-16T04:15:58;4.65;;;2.65;;
49978;SDS011;35869;50.990;6.962;2023-03-16T04:20:59;4.25;;;2.42;;
49978;SDS011;35869;50.990;6.962;2023-03-16T04:26:00;3.78;;;3.20;;
49978;SDS011;35869;50.990;6.962;2023-03-16T04:31:04;7.63;;;2.67;;
49978;SDS011;35869;50.990;6.962;2023-03-16T04:36:06;5.35;;;2.75;;
49978;SDS011;35869;50.990;6.962;2023-03-16T04:41:08;3.95;;;2.50;;
49978;SDS011;35869;50.990;6.962;2023-03-16T04:51:08;8.27;;;3.47;;
49978;SDS011;35869;50.990;6.962;2023-03-16T04:56:09;5.43;;;3.17;;
49978;SDS011;35869;50.990;6.962;2023-03-16T05:01:10;6.38;;;2.80;;
49978;SDS011;35869;50.990;6.962;2023-03-16T05:06:11;4.93;;;2.92;;
49978;SDS011;35869;50.990;6.962;2023-03-16T05:16:11;5.05;;;2.97;;
49978;SDS011;35869;50.990;6.962;2023-03-16T05:21:13;6.45;;;3.47;;
49978;SDS011;35869;50.990;6.962;2023-03-16T05:26:13;5.35;;;3.38;;
49978;SDS011;35869;50.990;6.962;2023-03-16T05:31:13;7.45;;;3.20;;
49978;SDS011;35869;50.990;6.962;2023-03-16T05:36:13;7.28;;;3.63;;
49978;SDS011;35869;50.990;6.962;2023-03-16T05:41:14;4.68;;;3.17;;
49978;SDS011;35869;50.990;6.962;2023-03-16T05:46:14;6.72;;;3.50;;
49978;SDS011;35869;50.990;6.962;2023-03-16T05:51:14;6.32;;;4.30;;
49978;SDS011;35869;50.990;6.962;2023-03-16T05:56:14;6.38;;;3.67;;
49978;SDS011;35869;50.990;6.962;2023-03-16T06:01:14;4.45;;;3.92;;
49978;SDS011;35869;50.990;6.962;2023-03-16T06:06:15;11.13;;;4.60;;
49978;SDS011;35869;50.990;6.962;2023-03-16T06:11:16;9.23;;;4.25;;
49978;SDS011;35869;50.990;6.962;2023-03-16T06:16:16;8.02;;;4.10;;
49978;SDS011;35869;50.990;6.962;2023-03-16T06:21:16;6.70;;;4.00;;
49978;SDS011;35869;50.990;6.962;2023-03-16T06:26:16;6.75;;;4.60;;
49978;SDS011;35869;50.990;6.962;2023-03-16T06:31:17;7.00;;;4.60;;
49978;SDS011;35869;50.990;6.962;2023-03-16T06:36:17;6.63;;;3.72;;
49978;SDS011;35869;50.990;6.962;2023-03-16T06:41:17;14.17;;;4.37;;
49978;SDS011;35869;50.990;6.962;2023-03-16T06:46:17;7.68;;;3.38;;
49978;SDS011;35869;50.990;6.962;2023-03-16T06:51:17;6.00;;;4.22;;
49978;SDS011;35869;50.990;6.962;2023-03-16T06:56:18;5.38;;;3.55;;
49978;SDS011;35869;50.990;6.962;2023-03-16T07:01:18;6.95;;;4.55;;
49978;SDS011;35869;50.990;6.962;2023-03-16T07:06:18;9.05;;;3.70;;
49978;SDS011;35869;50.990;6.962;2023-03-16T07:11:18;6.45;;;3.75;;
49978;SDS011;35869;50.990;6.962;2023-03-16T07:16:19;7.03;;;3.83;;
49978;SDS011;35869;50.990;6.962;2023-03-16T07:21:19;7.13;;;4.15;;
49978;SDS011;35869;50.990;6.962;2023-03-16T07:26:20;7.47;;;4.18;;
49978;SDS011;35869;50.990;6.962;2023-03-16T07:31:20;8.50;;;4.53;;
49978;SDS011;35869;50.990;6.962;2023-03-16T07:36:20;6.68;;;4.30;;
49978;SDS011;35869;50.990;6.962;2023-03-16T07:41:20;5.45;;;4.30;;
49978;SDS011;35869;50.990;6.962;2023-03-16T07:46:20;5.55;;;3.47;;
49978;SDS011;35869;50.990;6.962;2023-03-16T07:51:21;5.70;;;3.83;;
49978;SDS011;35869;50.990;6.962;2023-03-16T07:56:21;7.30;;;4.93;;
49978;SDS011;35869;50.990;6.962;2023-03-16T08:01:21;8.85;;;5.57;;
49978;SDS011;35869;50.990;6.962;2023-03-16T08:06:21;7.60;;;5.17;;
49978;SDS011;35869;50.990;6.962;2023-03-16T08:11:22;7.95;;;4.97;;
49978;SDS011;35869;50.990;6.962;2023-03-16T08:16:22;6.60;;;4.88;;
49978;SDS011;35869;50.990;6.962;2023-03-16T08:21:23;9.45;;;5.10;;
49978;SDS011;35869;50.990;6.962;2023-03-16T08:26:23;6.15;;;4.05;;
49978;SDS011;35869;50.990;6.962;2023-03-16T08:31:23;5.43;;;3.95;;
49978;SDS011;35869;50.990;6.962;2023-03-16T08:36:24;6.25;;;4.40;;
49978;SDS011;35869;50.990;6.962;2023-03-16T08:41:24;7.40;;;3.97;;
49978;SDS011;35869;50.990;6.962;2023-03-16T08:46:24;5.45;;;3.58;;
49978;SDS011;35869;50.990;6.962;2023-03-16T08:51:24;11.90;;;4.53;;
49978;SDS011;35869;50.990;6.962;2023-03-16T08:56:25;4.35;;;2.70;;
49978;SDS011;35869;50.990;6.962;2023-03-16T09:01:25;4.97;;;3.08;;
49978;SDS011;35869;50.990;6.962;2023-03-16T09:06:25;5.50;;;3.53;;
49978;SDS011;35869;50.990;6.962;2023-03-16T09:11:26;4.10;;;3.40;;
49978;SDS011;35869;50.990;6.962;2023-03-16T09:16:26;5.00;;;3.55;;
49978;SDS011;35869;50.990;6.962;2023-03-16T09:21:26;4.50;;;3.60;;
49978;SDS011;35869;50.990;6.962;2023-03-16T09:26:26;5.82;;;3.22;;
49978;SDS011;35869;50.990;6.962;2023-03-16T09:31:26;6.63;;;3.50;;
49978;SDS011;35869;50.990;6.962;2023-03-16T09:36:27;4.25;;;3.40;;
49978;SDS011;35869;50.990;6.962;2023-03-16T09:41:41;5.93;;;3.10;;
49978;SDS011;35869;50.990;6.962;2023-03-16T09:46:52;4.35;;;2.97;;
49978;SDS011;35869;50.990;6.962;2023-03-16T09:52:11;8.35;;;3.67;;
49978;SDS011;35869;50.990;6.962;2023-03-16T09:57:27;3.75;;;2.85;;
49978;SDS011;35869;50.990;6.962;2023-03-16T10:02:38;6.38;;;3.70;;
49978;SDS011;35869;50.990;6.962;2023-03-16T10:18:52;6.78;;;3.58;;
49978;SDS011;35869;50.990;6.962;2023-03-16T10:24:22;5.55;;;3.60;;
49978;SDS011;35869;50.990;6.962;2023-03-16T10:29:29;3.83;;;3.40;;
49978;SDS011;35869;50.990;6.962;2023-03-16T10:34:33;5.07;;;3.40;;
49978;SDS011;35869;50.990;6.962;2023-03-16T10:39:37;3.00;;;2.70;;
49978;SDS011;35869;50.990;6.962;2023-03-16T10:44:38;4.43;;;2.72;;
49978;SDS011;35869;50.990;6.962;2023-03-16T10:49:39;5.50;;;3.05;;
49978;SDS011;35869;50.990;6.962;2023-03-16T10:54:46;5.70;;;2.83;;
49978;SDS011;35869;50.990;6.962;2023-03-16T10:59:51;4.88;;;3.50;;
49978;SDS011;35869;50.990;6.962;2023-03-16T11:04:53;5.00;;;3.63;;
49978;SDS011;35869;50.990;6.962;2023-03-16T11:09:53;4.60;;;3.05;;
49978;SDS011;35869;50.990;6.962;2023-03-16T11:20:03;9.98;;;4.05;;
49978;SDS011;35869;50.990;6.962;2023-03-16T11:25:20;9.73;;;3.78;;
49978;SDS011;35869;50.990;6.962;2023-03-16T11:30:35;5.63;;;3.40;;
49978;SDS011;35869;50.990;6.962;2023-03-16T11:52:10;3.25;;;1.80;;
49978;SDS011;35869;50.990;6.962;2023-03-16T12:03:10;3.55;;;1.90;;
49978;SDS011;35869;50.990;6.962;2023-03-16T12:08:36;3.60;;;2.33;;
49978;SDS011;35869;50.990;6.962;2023-03-16T12:19:05;2.50;;;1.90;;
49978;SDS011;35869;50.990;6.962;2023-03-16T12:24:15;3.33;;;1.85;;
49978;SDS011;35869;50.990;6.962;2023-03-16T12:34:37;4.97;;;2.30;;
49978;SDS011;35869;50.990;6.962;2023-03-16T12:49:54;3.50;;;1.80;;
49978;SDS011;35869;50.990;6.962;2023-03-16T12:55:05;2.83;;;1.80;;
49978;SDS011;35869;50.990;6.962;2023-03-16T13:00:16;2.08;;;1.52;;
49978;SDS011;35869;50.990;6.962;2023-03-16T13:05:31;2.20;;;1.73;;
49978;SDS011;35869;50.990;6.962;2023-03-16T13:10:33;4.20;;;1.80;;
49978;SDS011;35869;50.990;6.962;2023-03-16T13:15:34;3.70;;;2.03;;
49978;SDS011;35869;50.990;6.962;2023-03-16T13:20:47;2.55;;;1.70;;
49978;SDS011;35869;50.990;6.962;2023-03-16T13:26:03;7.97;;;1.80;;
49978;SDS011;35869;50.990;6.962;2023-03-16T13:31:24;3.03;;;1.27;;
49978;SDS011;35869;50.990;6.962;2023-03-16T13:36:31;3.47;;;1.45;;
49978;SDS011;35869;50.990;6.962;2023-03-16T13:41:33;4.85;;;1.50;;
49978;SDS011;35869;50.990;6.962;2023-03-16T13:46:33;2.63;;;1.30;;
49978;SDS011;35869;50.990;6.962;2023-03-16T13:51:33;4.03;;;1.75;;
49978;SDS011;35869;50.990;6.962;2023-03-16T13:56:36;3.42;;;1.40;;
49978;SDS011;35869;50.990;6.962;2023-03-16T14:01:37;3.55;;;1.35;;
49978;SDS011;35869;50.990;6.962;2023-03-16T14:06:37;2.83;;;1.40;;
49978;SDS011;35869;50.990;6.962;2023-03-16T14:11:38;6.18;;;1.65;;
49978;SDS011;35869;50.990;6.962;2023-03-16T14:16:38;2.70;;;1.42;;
49978;SDS011;35869;50.990;6.962;2023-03-16T14:21:41;2.20;;;1.55;;
49978;SDS011;35869;50.990;6.962;2023-03-16T14:26:44;2.55;;;1.63;;
49978;SDS011;35869;50.990;6.962;2023-03-16T14:31:45;2.20;;;1.63;;
49978;SDS011;35869;50.990;6.962;2023-03-16T14:36:47;3.03;;;1.60;;
49978;SDS011;35869;50.990;6.962;2023-03-16T14:41:48;2.30;;;1.53;;
49978;SDS011;35869;50.990;6.962;2023-03-16T14:46:49;7.18;;;2.10;;
49978;SDS011;35869;50.990;6.962;2023-03-16T14:51:53;2.13;;;1.58;;
49978;SDS011;35869;50.990;6.962;2023-03-16T14:56:59;5.38;;;1.90;;
49978;SDS011;35869;50.990;6.962;2023-03-16T15:02:02;3.38;;;1.60;;
49978;SDS011;35869;50.990;6.962;2023-03-16T15:07:17;3.90;;;1.70;;
49978;SDS011;35869;50.990;6.962;2023-03-16T15:12:22;2.20;;;1.42;;
49978;SDS011;35869;50.990;6.962;2023-03-16T15:17:22;2.70;;;1.50;;
49978;SDS011;35869;50.990;6.962;2023-03-16T15:22:27;4.70;;;2.22;;
49978;SDS011;35869;50.990;6.962;2023-03-16T15:27:32;3.00;;;1.30;;
49978;SDS011;35869;50.990;6.962;2023-03-16T15:32:34;3.10;;;1.80;;
49978;SDS011;35869;50.990;6.962;2023-03-16T15:37:35;2.22;;;1.85;;
49978;SDS011;35869;50.990;6.962;2023-03-16T15:42:35;5.30;;;2.13;;
49978;SDS011;35869;50.990;6.962;2023-03-16T15:47:35;2.20;;;1.67;;
49978;SDS011;35869;50.990;6.962;2023-03-16T15:52:36;5.18;;;1.95;;
49978;SDS011;35869;50.990;6.962;2023-03-16T15:57:38;3.95;;;2.30;;
49978;SDS011;35869;50.990;6.962;2023-03-16T16:02:38;3.03;;;1.85;;
49978;SDS011;35869;50.990;6.962;2023-03-16T16:07:39;2.60;;;1.77;;
49978;SDS011;35869;50.990;6.962;2023-03-16T16:12:39;2.95;;;2.08;;
49978;SDS011;35869;50.990;6.962;2023-03-16T16:17:39;2.77;;;1.80;;
49978;SDS011;35869;50.990;6.962;2023-03-16T16:22:39;2.70;;;2.00;;
49978;SDS011;35869;50.990;6.962;2023-03-16T16:27:40;2.45;;;2.25;;
49978;SDS011;35869;50.990;6.962;2023-03-16T16:32:40;2.10;;;1.90;;
49978;SDS011;35869;50.990;6.962;2023-03-16T16:37:40;2.28;;;1.90;;
49978;SDS011;35869;50.990;6.962;2023-03-16T16:42:42;4.72;;;2.72;;
49978;SDS011;35869;50.990;6.962;2023-03-16T16:47:43;3.50;;;2.10;;
49978;SDS011;35869;50.990;6.962;2023-03-16T16:52:44;6.70;;;2.33;;
49978;SDS011;35869;50.990;6.962;2023-03-16T16:57:44;2.47;;;2.03;;
49978;SDS011;35869;50.990;6.962;2023-03-16T17:02:48;3.15;;;2.22;;
49978;SDS011;35869;50.990;6.962;2023-03-16T17:07:53;3.92;;;2.35;;
49978;SDS011;35869;50.990;6.962;2023-03-16T17:13:09;2.73;;;2.30;;
49978;SDS011;35869;50.990;6.962;2023-03-16T17:18:22;4.68;;;2.70;;
49978;SDS011;35869;50.990;6.962;2023-03-16T17:23:33;4.00;;;2.43;;
49978;SDS011;35869;50.990;6.962;2023-03-16T17:28:34;3.77;;;2.47;;
49978;SDS011;35869;50.990;6.962;2023-03-16T17:33:40;3.15;;;2.70;;
49978;SDS011;35869;50.990;6.962;2023-03-16T17:38:41;3.35;;;2.33;;
49978;SDS011;35869;50.990;6.962;2023-03-16T17:43:41;6.05;;;2.38;;
49978;SDS011;35869;50.990;6.962;2023-03-16T17:48:41;3.28;;;1.77;;
49978;SDS011;35869;50.990;6.962;2023-03-16T17:53:42;2.75;;;2.25;;
49978;SDS011;35869;50.990;6.962;2023-03-16T17:58:53;3.45;;;2.20;;
49978;SDS011;35869;50.990;6.962;2023-03-16T18:04:02;3.47;;;2.67;;
49978;SDS011;35869;50.990;6.962;2023-03-16T18:09:03;3.95;;;2.03;;
49978;SDS011;35869;50.990;6.962;2023-03-16T18:19:14;4.15;;;2.08;;
49978;SDS011;35869;50.990;6.962;2023-03-16T18:24:20;4.30;;;1.85;;
49978;SDS011;35869;50.990;6.962;2023-03-16T18:29:21;4.30;;;1.98;;
49978;SDS011;35869;50.990;6.962;2023-03-16T18:34:22;3.90;;;2.10;;
49978;SDS011;35869;50.990;6.962;2023-03-16T18:39:24;3.88;;;2.40;;
49978;SDS011;35869;50.990;6.962;2023-03-16T18:44:25;2.78;;;2.42;;
49978;SDS011;35869;50.990;6.962;2023-03-16T18:49:32;3.80;;;2.08;;
49978;SDS011;35869;50.990;6.962;2023-03-16T18:54:35;3.75;;;2.25;;
49978;SDS011;35869;50.990;6.962;2023-03-16T18:59:35;2.67;;;2.03;;
49978;SDS011;35869;50.990;6.962;2023-03-16T19:04:35;2.90;;;1.80;;
49978;SDS011;35869;50.990;6.962;2023-03-16T19:09:36;2.03;;;1.80;;
49978;SDS011;35869;50.990;6.962;2023-03-16T19:14:36;3.78;;;2.17;;
49978;SDS011;35869;50.990;6.962;2023-03-16T19:19:36;7.75;;;2.47;;
49978;SDS011;35869;50.990;6.962;2023-03-16T19:24:42;3.10;;;2.17;;
49978;SDS011;35869;50.990;6.962;2023-03-16T19:29:46;5.82;;;2.30;;
49978;SDS011;35869;50.990;6.962;2023-03-16T19:39:47;2.85;;;1.95;;
49978;SDS011;35869;50.990;6.962;2023-03-16T19:44:48;3.07;;;2.50;;
49978;SDS011;35869;50.990;6.962;2023-03-16T19:49:49;7.72;;;4.70;;
49978;SDS011;35869;50.990;6.962;2023-03-16T19:54:49;5.97;;;4.30;;
49978;SDS011;35869;50.990;6.962;2023-03-16T19:59:54;4.82;;;4.32;;
49978;SDS011;35869;50.990;6.962;2023-03-16T20:04:55;3.80;;;2.75;;
49978;SDS011;35869;50.990;6.962;2023-03-16T20:09:55;3.17;;;2.50;;
49978;SDS011;35869;50.990;6.962;2023-03-16T20:14:56;6.87;;;2.77;;
49978;SDS011;35869;50.990;6.962;2023-03-16T20:20:04;3.78;;;2.70;;
49978;SDS011;35869;50.990;6.962;2023-03-16T20:25:16;4.50;;;2.83;;
49978;SDS011;35869;50.990;6.962;2023-03-16T20:30:16;5.90;;;2.93;;
49978;SDS011;35869;50.990;6.962;2023-03-16T20:40:20;4.18;;;2.65;;
49978;SDS011;35869;50.990;6.962;2023-03-16T20:45:23;3.67;;;2.85;;
49978;SDS011;35869;50.990;6.962;2023-03-16T20:50:26;4.65;;;3.05;;
49978;SDS011;35869;50.990;6.962;2023-03-16T20:55:28;5.43;;;3.13;;
49978;SDS011;35869;50.990;6.962;2023-03-16T21:00:29;6.43;;;2.92;;
49978;SDS011;35869;50.990;6.962;2023-03-16T21:05:37;5.72;;;3.28;;
49978;SDS011;35869;50.990;6.962;2023-03-16T21:10:37;3.83;;;2.80;;
49978;SDS011;35869;50.990;6.962;2023-03-16T21:15:38;3.78;;;3.28;;
49978;SDS011;35869;50.990;6.962;2023-03-16T21:20:38;4.10;;;2.70;;
49978;SDS011;35869;50.990;6.962;2023-03-16T21:25:43;5.68;;;3.00;;
49978;SDS011;35869;50.990;6.962;2023-03-16T21:30:49;4.47;;;3.22;;
49978;SDS011;35869;50.990;6.962;2023-03-16T21:35:52;5.07;;;3.03;;
49978;SDS011;35869;50.990;6.962;2023-03-16T21:40:52;3.47;;;2.10;;
49978;SDS011;35869;50.990;6.962;2023-03-16T21:45:52;7.10;;;2.23;;
49978;SDS011;35869;50.990;6.962;2023-03-16T21:50:54;3.80;;;2.35;;
49978;SDS011;35869;50.990;6.962;2023-03-16T21:55:54;3.63;;;2.45;;
49978;SDS011;35869;50.990;6.962;2023-03-16T22:00:55;3.00;;;2.15;;
49978;SDS011;35869;50.990;6.962;2023-03-16T22:05:56;2.33;;;2.03;;
49978;SDS011;35869;50.990;6.962;2023-03-16T22:10:58;3.42;;;2.50;;
49978;SDS011;35869;50.990;6.962;2023-03-16T22:15:59;3.35;;;2.20;;
49978;SDS011;35869;50.990;6.962;2023-03-16T22:21:00;2.88;;;1.85;;
49978;SDS011;35869;50.990;6.962;2023-03-16T22:26:04;3.53;;;2.13;;
49978;SDS011;35869;50.990;6.962;2023-03-16T22:31:05;3.10;;;2.10;;
49978;SDS011;35869;50.990;6.962;2023-03-16T22:36:07;2.83;;;1.93;;
49978;SDS011;35869;50.990;6.962;2023-03-16T22:41:12;2.03;;;1.45;;
49978;SDS011;35869;50.990;6.962;2023-03-16T22:46:18;3.47;;;1.92;;
49978;SDS011;35869;50.990;6.962;2023-03-16T22:51:30;2.40;;;1.80;;
49978;SDS011;35869;50.990;6.962;2023-03-16T22:56:33;3.22;;;2.30;;
49978;SDS011;35869;50.990;6.962;2023-03-16T23:01:36;2.15;;;1.45;;
49978;SDS011;35869;50.990;6.962;2023-03-16T23:06:41;3.22;;;1.90;;
49978;SDS011;35869;50.990;6.962;2023-03-16T23:11:42;2.78;;;1.85;;
49978;SDS011;35869;50.990;6.962;2023-03-16T23:16:44;3.78;;;2.22;;
49978;SDS011;35869;50.990;6.962;2023-03-16T23:21:44;3.55;;;1.73;;
49978;SDS011;35869;50.990;6.962;2023-03-16T23:26:45;2.30;;;1.75;;
49978;SDS011;35869;50.990;6.962;2023-03-16T23:31:45;4.70;;;1.90;;
49978;SDS011;35869;50.990;6.962;2023-03-16T23:36:46;2.80;;;1.83;;
49978;SDS011;35869;50.990;6.962;2023-03-16T23:41:47;3.25;;;2.20;;
49978;SDS011;35869;50.990;6.962;2023-03-16T23:46:48;5.07;;;2.15;;
49978;SDS011;35869;50.990;6.962;2023-03-16T23:51:50;2.15;;;1.83;;
49978;SDS011;35869;50.990;6.962;2023-03-16T23:56:51;2.63;;;1.50;;
